createdAt,value
2022-09-15T00:01:06.878Z,99.90
2022-09-15T00:03:34.354Z,99.90
2022-09-15T00:06:01.253Z,99.90
2022-09-15T00:08:30.389Z,99.90
2022-09-15T00:11:08.829Z,99.90
2022-09-15T00:13:37.307Z,99.90
2022-09-15T00:16:05.764Z,99.90
2022-09-15T00:18:35.633Z,99.90
2022-09-15T00:21:14.511Z,99.90
2022-09-15T00:23:41.465Z,99.90
2022-09-15T00:26:10.820Z,99.90
2022-09-15T00:28:39.400Z,99.90
2022-09-15T00:31:09.350Z,99.90
2022-09-15T00:33:36.873Z,99.90
2022-09-15T00:36:06.545Z,99.90
2022-09-15T00:38:34.575Z,99.90
2022-09-15T00:41:02.521Z,99.90
2022-09-15T00:43:57.276Z,99.90
2022-09-15T00:46:28.338Z,99.90
2022-09-15T00:49:03.507Z,99.90
2022-09-15T00:51:50.587Z,99.90
2022-09-15T00:54:36.200Z,99.90
2022-09-15T00:57:08.854Z,99.90
2022-09-15T00:59:38.377Z,99.90
2022-09-15T01:02:19.282Z,99.90
2022-09-15T01:04:46.614Z,99.90
2022-09-15T01:07:16.921Z,99.90
2022-09-15T01:09:51.118Z,99.90
2022-09-15T01:12:18.789Z,99.90
2022-09-15T01:14:45.645Z,99.90
2022-09-15T01:17:29.772Z,99.90
2022-09-15T01:20:17.179Z,99.90
2022-09-15T01:22:53.071Z,99.90
2022-09-15T01:25:32.024Z,99.90
2022-09-15T01:28:30.317Z,99.90
2022-09-15T01:31:05.722Z,99.90
2022-09-15T01:34:03.164Z,99.90
2022-09-15T01:36:42.947Z,99.90
2022-09-15T01:39:18.002Z,99.90
2022-09-15T01:41:52.200Z,99.90
2022-09-15T01:44:24.553Z,99.90
2022-09-15T01:47:04.016Z,99.90
2022-09-15T01:49:36.264Z,99.90
2022-09-15T01:52:03.449Z,99.90
2022-09-15T01:54:35.908Z,99.90
2022-09-15T01:57:03.248Z,99.90
2022-09-15T01:59:31.329Z,99.90
2022-09-15T02:02:12.850Z,99.90
2022-09-15T02:04:51.047Z,99.90
2022-09-15T02:07:27.288Z,99.90
2022-09-15T02:10:02.828Z,99.90
2022-09-15T02:12:36.963Z,99.90
2022-09-15T02:15:10.409Z,99.90
2022-09-15T02:17:42.987Z,99.90
2022-09-15T02:20:41.729Z,99.90
2022-09-15T02:23:17.163Z,99.90
2022-09-15T02:25:51.656Z,99.90
2022-09-15T02:28:24.013Z,99.90
2022-09-15T02:30:54.276Z,99.90
2022-09-15T02:33:24.415Z,99.90
2022-09-15T02:35:52.779Z,99.90
2022-09-15T02:38:20.332Z,99.90
2022-09-15T02:40:47.984Z,99.90
2022-09-15T02:43:17.062Z,99.90
2022-09-15T02:45:43.974Z,99.90
2022-09-15T02:48:11.340Z,99.90
2022-09-15T02:50:39.956Z,99.90
2022-09-15T02:53:07.109Z,99.90
2022-09-15T02:55:33.993Z,99.90
2022-09-15T02:58:00.991Z,99.90
2022-09-15T03:00:29.350Z,99.90
2022-09-15T03:02:56.323Z,99.90
2022-09-15T03:05:26.583Z,99.90
2022-09-15T03:07:54.401Z,99.90
2022-09-15T03:10:22.467Z,99.90
2022-09-15T03:12:52.003Z,99.90
2022-09-15T03:15:22.308Z,99.90
2022-09-15T03:17:50.117Z,99.90
2022-09-15T03:20:23.623Z,99.90
2022-09-15T03:22:50.487Z,99.90
2022-09-15T03:25:18.008Z,99.90
2022-09-15T03:27:44.833Z,99.90
2022-09-15T03:30:13.181Z,99.90
2022-09-15T03:32:40.266Z,99.90
2022-09-15T03:35:07.550Z,99.90
2022-09-15T03:37:34.928Z,99.90
2022-09-15T03:40:03.735Z,99.90
2022-09-15T03:42:30.791Z,99.90
2022-09-15T03:44:57.675Z,99.90
2022-09-15T03:47:24.617Z,99.90
2022-09-15T03:49:52.439Z,99.90
2022-09-15T03:52:19.285Z,99.90
2022-09-15T03:54:47.948Z,99.90
2022-09-15T03:57:14.859Z,99.90
2022-09-15T03:59:42.718Z,99.90
2022-09-15T04:02:09.614Z,99.90
2022-09-15T04:04:36.764Z,99.90
2022-09-15T04:07:03.642Z,99.90
2022-09-15T04:09:31.490Z,99.90
2022-09-15T04:11:58.451Z,99.90
2022-09-15T04:14:25.308Z,99.90
2022-09-15T04:16:52.412Z,99.90
2022-09-15T04:19:19.221Z,99.90
2022-09-15T04:21:47.396Z,99.90
2022-09-15T04:24:14.284Z,99.90
2022-09-15T04:26:41.185Z,99.90
2022-09-15T04:29:13.724Z,99.90
2022-09-15T04:31:40.712Z,99.90
2022-09-15T04:34:07.891Z,99.90
2022-09-15T04:36:34.842Z,99.90
2022-09-15T04:39:01.864Z,99.90
2022-09-15T04:41:29.248Z,99.90
2022-09-15T04:43:56.178Z,99.90
2022-09-15T04:46:23.055Z,99.90
2022-09-15T04:48:49.971Z,99.90
2022-09-15T04:51:19.608Z,99.90
2022-09-15T04:53:47.131Z,99.90
2022-09-15T04:56:22.769Z,99.90
2022-09-15T04:58:53.023Z,99.90
2022-09-15T05:01:26.317Z,99.90
2022-09-15T05:03:53.586Z,99.90
2022-09-15T05:06:27.697Z,99.90
2022-09-15T05:08:57.248Z,99.90
2022-09-15T05:11:25.175Z,99.90
2022-09-15T05:13:52.524Z,99.90
2022-09-15T05:16:22.181Z,99.90
2022-09-15T05:18:51.673Z,99.90
2022-09-15T05:21:20.572Z,99.90
2022-09-15T05:23:48.359Z,99.90
2022-09-15T05:26:18.332Z,99.90
2022-09-15T05:28:45.774Z,99.90
2022-09-15T05:31:18.559Z,99.90
2022-09-15T05:33:46.963Z,99.90
2022-09-15T05:36:15.260Z,99.90
2022-09-15T05:38:43.960Z,99.90
2022-09-15T05:41:17.002Z,99.90
2022-09-15T05:43:45.378Z,99.90
2022-09-15T05:46:12.900Z,99.90
2022-09-15T05:48:39.950Z,99.90
2022-09-15T05:51:07.804Z,99.90
2022-09-15T05:53:35.603Z,99.90
2022-09-15T05:56:09.580Z,99.90
2022-09-15T05:58:38.330Z,99.90
2022-09-15T06:01:07.962Z,99.90
2022-09-15T06:03:35.464Z,99.90
2022-09-15T06:06:04.288Z,99.90
2022-09-15T06:08:43.719Z,99.90
2022-09-15T06:11:17.470Z,99.90
2022-09-15T06:13:45.584Z,99.90
2022-09-15T06:16:20.551Z,99.90
2022-09-15T06:18:49.331Z,99.90
2022-09-15T06:21:17.519Z,99.90
2022-09-15T06:23:49.908Z,99.90
2022-09-15T06:26:19.226Z,99.90
2022-09-15T06:28:56.763Z,99.90
2022-09-15T06:31:24.679Z,99.90
2022-09-15T06:33:53.322Z,99.90
2022-09-15T06:36:22.753Z,99.90
2022-09-15T06:38:51.692Z,99.90
2022-09-15T06:41:18.596Z,99.90
2022-09-15T06:43:46.673Z,99.90
2022-09-15T06:46:17.887Z,99.90
2022-09-15T06:48:48.182Z,99.90
2022-09-15T06:51:18.247Z,99.90
2022-09-15T06:53:45.833Z,99.90
2022-09-15T06:56:23.593Z,99.90
2022-09-15T07:02:38.797Z,99.90
2022-09-15T07:05:05.891Z,99.90
2022-09-15T07:07:32.737Z,99.90
2022-09-15T07:10:00.908Z,99.90
2022-09-15T07:12:27.784Z,99.90
2022-09-15T07:14:54.860Z,99.90
2022-09-15T07:17:21.661Z,99.90
2022-09-15T07:20:07.845Z,99.90
2022-09-15T07:22:34.873Z,99.90
2022-09-15T07:25:01.759Z,99.90
2022-09-15T07:27:31.638Z,99.90
2022-09-15T07:31:10.528Z,99.90
2022-09-15T07:33:37.630Z,99.90
2022-09-15T07:36:06.762Z,99.90
2022-09-15T07:38:34.816Z,99.90
2022-09-15T07:41:10.316Z,99.90
2022-09-15T07:43:37.845Z,99.90
2022-09-15T07:46:05.194Z,99.90
2022-09-15T07:48:33.216Z,99.90
2022-09-15T07:51:00.214Z,99.90
2022-09-15T07:53:30.549Z,99.90
2022-09-15T07:55:57.620Z,99.90
2022-09-15T07:58:25.081Z,99.90
2022-09-15T08:00:52.233Z,99.90
2022-09-15T08:03:19.183Z,99.90
2022-09-15T08:05:46.307Z,99.90
2022-09-15T08:08:13.384Z,99.90
2022-09-15T08:10:41.386Z,99.90
2022-09-15T08:13:08.581Z,99.90
2022-09-15T08:15:37.615Z,99.90
2022-09-15T08:18:05.720Z,99.90
2022-09-15T08:20:33.695Z,99.90
2022-09-15T08:23:00.712Z,99.90
2022-09-15T08:25:27.587Z,99.90
2022-09-15T08:27:56.269Z,99.90
2022-09-15T08:30:23.714Z,99.90
2022-09-15T08:32:51.222Z,99.90
2022-09-15T08:35:18.918Z,99.90
2022-09-15T08:37:47.192Z,99.90
2022-09-15T08:40:20.643Z,99.90
2022-09-15T08:42:48.400Z,99.90
2022-09-15T08:45:27.778Z,99.90
2022-09-15T08:47:59.987Z,99.90
2022-09-15T08:50:34.322Z,99.90
2022-09-15T08:53:25.634Z,99.90
2022-09-15T08:55:59.560Z,99.90
2022-09-15T08:58:30.343Z,99.90
2022-09-15T09:01:19.487Z,99.90
2022-09-15T09:04:14.497Z,99.90
2022-09-15T09:06:46.448Z,99.90
2022-09-15T09:09:39.088Z,99.90
2022-09-15T09:12:14.264Z,99.90
2022-09-15T09:15:05.897Z,99.90
2022-09-15T09:17:35.457Z,99.90
2022-09-15T09:20:43.313Z,99.90
2022-09-15T09:23:15.261Z,99.90
2022-09-15T09:25:43.497Z,99.90
2022-09-15T09:29:04.350Z,99.90
2022-09-15T09:31:31.407Z,99.90
2022-09-15T09:34:12.074Z,99.90
2022-09-15T09:36:39.027Z,99.90
2022-09-15T09:39:14.045Z,99.90
2022-09-15T09:41:42.540Z,99.90
2022-09-15T09:44:15.170Z,99.90
2022-09-15T09:46:44.150Z,99.90
2022-09-15T09:49:16.855Z,99.90
2022-09-15T09:52:04.800Z,99.90
2022-09-15T09:54:33.911Z,99.90
2022-09-15T09:57:29.349Z,99.90
2022-09-15T09:59:56.593Z,99.90
2022-09-15T10:02:27.484Z,99.90
2022-09-15T10:05:12.429Z,99.90
2022-09-15T10:07:43.860Z,99.90
2022-09-15T10:10:21.894Z,99.90
2022-09-15T10:12:50.721Z,99.90
2022-09-15T10:15:26.127Z,99.90
2022-09-15T10:17:55.195Z,99.90
2022-09-15T10:20:25.849Z,99.90
2022-09-15T10:23:02.938Z,99.90
2022-09-15T10:25:55.028Z,99.90
2022-09-15T10:28:24.086Z,99.90
2022-09-15T10:31:07.002Z,99.90
2022-09-15T10:33:36.708Z,99.90
2022-09-15T10:36:12.981Z,99.90
2022-09-15T10:38:46.811Z,99.90
2022-09-15T10:41:35.031Z,99.90
2022-09-15T10:44:23.008Z,99.90
2022-09-15T10:47:02.167Z,99.90
2022-09-15T10:49:38.208Z,99.80
2022-09-15T10:52:27.988Z,99.30
2022-09-15T10:55:13.339Z,97.90
2022-09-15T10:58:08.977Z,97.50
2022-09-15T11:01:04.756Z,96.50
2022-09-15T11:03:46.897Z,95.20
2022-09-15T11:06:40.263Z,93.30
2022-09-15T11:09:17.705Z,91.10
2022-09-15T11:11:56.240Z,91.00
2022-09-15T11:14:44.128Z,90.10
2022-09-15T11:17:34.188Z,86.20
2022-09-15T11:20:36.069Z,84.00
2022-09-15T11:23:27.523Z,84.00
2022-09-15T11:26:14.557Z,82.60
2022-09-15T11:29:03.444Z,81.00
2022-09-15T11:31:36.712Z,80.70
2022-09-15T11:34:13.559Z,81.90
2022-09-15T11:36:52.287Z,79.90
2022-09-15T11:39:24.066Z,77.70
2022-09-15T11:41:56.523Z,76.20
2022-09-15T11:44:26.810Z,75.90
2022-09-15T11:47:24.498Z,75.80
2022-09-15T11:50:11.275Z,73.20
2022-09-15T11:53:02.223Z,73.10
2022-09-15T11:55:41.583Z,73.50
2022-09-15T11:58:33.358Z,73.10
2022-09-15T12:01:14.941Z,72.00
2022-09-15T12:03:59.581Z,72.70
2022-09-15T12:06:45.736Z,72.20
2022-09-15T12:09:16.642Z,72.80
2022-09-15T12:11:50.892Z,71.40
2022-09-15T12:14:22.461Z,71.80
2022-09-15T12:16:49.973Z,70.50
2022-09-15T12:19:43.777Z,71.30
2022-09-15T12:22:38.637Z,72.60
2022-09-15T12:25:17.827Z,71.80
2022-09-15T12:28:05.246Z,72.00
2022-09-15T12:30:41.574Z,72.10
2022-09-15T12:33:42.695Z,72.50
2022-09-15T12:36:31.299Z,73.50
2022-09-15T12:39:37.482Z,72.80
2022-09-15T12:42:10.851Z,72.80
2022-09-15T12:45:19.080Z,73.30
2022-09-15T12:47:57.053Z,73.80
2022-09-15T12:50:38.036Z,73.20
2022-09-15T12:53:28.488Z,73.10
2022-09-15T12:56:07.690Z,70.70
2022-09-15T12:58:39.599Z,70.50
2022-09-15T13:01:19.127Z,69.20
2022-09-15T13:03:46.663Z,68.00
2022-09-15T13:06:27.180Z,68.00
2022-09-15T13:09:33.013Z,68.60
2022-09-15T13:12:02.947Z,69.10
2022-09-15T13:14:34.274Z,70.20
2022-09-15T13:17:17.250Z,70.10
2022-09-15T13:20:08.596Z,69.60
2022-09-15T13:22:49.282Z,67.10
2022-09-15T13:25:21.556Z,67.00
2022-09-15T13:28:11.393Z,67.80
2022-09-15T13:31:26.712Z,66.60
2022-09-15T13:40:50.471Z,64.90
2022-09-15T13:43:30.196Z,60.70
2022-09-15T13:46:56.743Z,58.90
2022-09-15T13:50:02.780Z,59.90
2022-09-15T13:53:05.039Z,60.70
2022-09-15T13:55:35.010Z,61.70
2022-09-15T14:01:02.892Z,61.40
2022-09-15T14:04:00.720Z,62.20
2022-09-15T14:06:34.632Z,62.70
2022-09-15T14:09:08.119Z,63.30
2022-09-15T14:11:36.767Z,63.80
2022-09-15T14:14:09.591Z,63.70
2022-09-15T14:16:39.243Z,62.30
2022-09-15T14:19:26.369Z,61.20
2022-09-15T14:21:58.351Z,58.00
2022-09-15T14:24:32.389Z,57.90
2022-09-15T14:27:07.528Z,55.70
2022-09-15T14:29:42.718Z,55.60
2022-09-15T14:32:15.008Z,51.80
2022-09-15T14:34:43.650Z,52.30
2022-09-15T14:37:29.369Z,53.10
2022-09-15T14:40:00.430Z,54.10
2022-09-15T14:42:32.305Z,53.00
2022-09-15T14:48:00.347Z,53.10
2022-09-15T14:50:32.518Z,54.80
2022-09-15T14:53:03.751Z,54.20
2022-09-15T14:55:40.140Z,55.30
2022-09-15T14:58:18.661Z,55.40
2022-09-15T15:01:00.220Z,56.50
2022-09-15T15:03:49.931Z,55.70
2022-09-15T15:06:30.176Z,56.50
2022-09-15T15:09:03.773Z,57.50
2022-09-15T15:11:33.273Z,58.40
2022-09-15T15:14:00.519Z,59.60
2022-09-15T15:16:30.697Z,60.10
2022-09-15T15:18:58.240Z,59.70
2022-09-15T15:21:51.631Z,60.10
2022-09-15T15:24:22.226Z,61.30
2022-09-15T15:26:50.289Z,61.60
2022-09-15T15:29:44.477Z,61.50
2022-09-15T15:32:23.082Z,61.10
2022-09-15T15:34:51.527Z,61.70
2022-09-15T15:37:33.200Z,62.60
2022-09-15T15:40:04.477Z,62.80
2022-09-15T15:42:31.728Z,63.50
2022-09-15T15:45:24.730Z,64.40
2022-09-15T15:47:52.068Z,64.20
2022-09-15T15:50:25.321Z,64.90
2022-09-15T15:52:52.924Z,65.10
2022-09-15T15:55:25.333Z,65.40
2022-09-15T15:57:54.938Z,65.90
2022-09-15T16:00:33.430Z,65.60
2022-09-15T16:03:00.378Z,65.70
2022-09-15T16:05:29.343Z,66.10
2022-09-15T16:07:59.482Z,66.10
2022-09-15T16:10:37.004Z,66.40
2022-09-15T16:13:03.993Z,65.80
2022-09-15T16:15:30.847Z,65.10
2022-09-15T16:17:57.726Z,65.30
2022-09-15T16:20:25.694Z,64.80
2022-09-15T16:22:52.681Z,65.20
2022-09-15T16:25:31.252Z,65.40
2022-09-15T16:27:58.297Z,65.60
2022-09-15T16:30:26.116Z,64.80
2022-09-15T16:32:53.010Z,65.20
2022-09-15T16:35:43.090Z,65.70
2022-09-15T16:38:10.314Z,66.50
2022-09-15T16:40:37.583Z,66.90
2022-09-15T16:43:09.468Z,66.40
2022-09-15T16:45:40.579Z,65.70
2022-09-15T16:48:09.190Z,66.20
2022-09-15T16:50:40.193Z,66.00
2022-09-15T16:53:18.106Z,65.60
2022-09-15T16:55:50.249Z,65.80
2022-09-15T16:58:19.434Z,66.20
2022-09-15T17:00:49.635Z,67.00
2022-09-15T17:03:18.851Z,67.10
2022-09-15T17:05:48.804Z,67.80
2022-09-15T17:08:18.734Z,67.90
2022-09-15T17:10:46.624Z,68.50
2022-09-15T17:13:17.669Z,69.10
2022-09-15T17:15:48.921Z,69.10
2022-09-15T17:18:16.365Z,69.00
2022-09-15T17:20:49.598Z,67.40
2022-09-15T17:23:18.165Z,68.30
2022-09-15T17:25:51.388Z,69.10
2022-09-15T17:28:22.454Z,68.30
2022-09-15T17:30:51.466Z,68.90
2022-09-15T17:33:20.470Z,68.00
2022-09-15T17:35:48.347Z,68.70
2022-09-15T17:38:16.103Z,69.20
2022-09-15T17:41:13.852Z,69.50
2022-09-15T17:43:40.807Z,69.30
2022-09-15T17:46:08.860Z,69.80
2022-09-15T17:49:14.938Z,70.10
2022-09-15T17:51:41.831Z,69.90
2022-09-15T17:54:11.141Z,70.40
2022-09-15T17:56:38.164Z,70.00
2022-09-15T17:59:06.089Z,70.20
2022-09-15T18:01:32.949Z,70.60
2022-09-15T18:03:59.899Z,71.00
2022-09-15T18:06:27.372Z,70.90
2022-09-15T18:08:59.311Z,71.10
2022-09-15T18:11:28.866Z,71.30
2022-09-15T18:13:57.389Z,72.00
2022-09-15T18:16:24.259Z,72.20
2022-09-15T18:18:52.251Z,72.80
2022-09-15T18:21:27.007Z,73.10
2022-09-15T18:23:54.771Z,73.50
2022-09-15T18:26:26.281Z,74.00
2022-09-15T18:29:14.970Z,74.30
2022-09-15T18:31:41.892Z,74.60
2022-09-15T18:34:10.329Z,75.30
2022-09-15T18:36:37.154Z,75.60
2022-09-15T18:39:07.215Z,76.10
2022-09-15T18:41:37.641Z,76.30
2022-09-15T18:44:04.803Z,76.80
2022-09-15T18:46:31.802Z,77.00
2022-09-15T18:49:02.798Z,77.50
2022-09-15T18:51:50.539Z,77.90
2022-09-15T18:54:16.775Z,78.40
2022-09-15T18:56:43.584Z,78.70
2022-09-15T18:59:10.912Z,79.10
2022-09-15T19:01:37.899Z,79.40
2022-09-15T19:04:04.800Z,79.80
2022-09-15T19:06:31.799Z,80.10
2022-09-15T19:08:59.125Z,80.60
2022-09-15T19:11:28.842Z,81.20
2022-09-15T19:13:56.154Z,81.40
2022-09-15T19:16:34.561Z,81.70
2022-09-15T19:19:10.473Z,82.00
2022-09-15T19:21:37.401Z,82.20
2022-09-15T19:24:04.376Z,82.40
2022-09-15T19:26:31.308Z,82.60
2022-09-15T19:29:26.387Z,82.50
2022-09-15T19:31:53.708Z,82.30
2022-09-15T19:34:21.055Z,81.80
2022-09-15T19:36:47.910Z,81.30
2022-09-15T19:39:15.117Z,80.00
2022-09-15T19:41:42.256Z,79.40
2022-09-15T19:44:10.753Z,79.10
2022-09-15T19:46:38.551Z,78.20
2022-09-15T19:49:45.138Z,78.40
2022-09-15T19:52:13.189Z,78.40
2022-09-15T19:54:40.333Z,78.30
2022-09-15T19:57:07.553Z,78.00
2022-09-15T19:59:35.906Z,78.20
2022-09-15T20:02:02.896Z,77.60
2022-09-15T20:04:30.193Z,77.60
2022-09-15T20:06:57.123Z,77.90
2022-09-15T20:09:53.414Z,78.20
2022-09-15T20:14:48.224Z,77.60
2022-09-15T20:17:15.204Z,77.60
2022-09-15T20:19:42.300Z,77.80
2022-09-15T20:22:09.251Z,77.90
2022-09-15T20:24:36.096Z,78.20
2022-09-15T20:27:03.001Z,78.50
2022-09-15T20:29:30.157Z,78.70
2022-09-15T20:31:57.287Z,78.70
2022-09-15T20:34:24.189Z,78.80
2022-09-15T20:36:51.032Z,79.00
2022-09-15T20:39:22.186Z,79.80
2022-09-15T20:41:49.125Z,78.40
2022-09-15T20:44:16.477Z,78.70
2022-09-15T20:46:43.596Z,78.90
2022-09-15T20:49:12.736Z,79.20
2022-09-15T20:51:39.710Z,79.40
2022-09-15T20:54:06.840Z,79.70
2022-09-15T20:56:35.546Z,79.80
2022-09-15T20:59:04.032Z,79.60
2022-09-15T21:01:37.058Z,79.50
2022-09-15T21:04:08.863Z,79.20
2022-09-15T21:06:36.786Z,79.60
2022-09-15T21:09:05.433Z,80.00
2022-09-15T21:11:33.169Z,80.00
2022-09-15T21:14:00.853Z,79.60
2022-09-15T21:16:28.953Z,79.50
2022-09-15T21:18:58.202Z,79.30
2022-09-15T21:21:30.264Z,79.50
2022-09-15T21:24:04.072Z,79.70
2022-09-15T21:26:57.212Z,79.50
2022-09-15T21:29:43.392Z,79.90
2022-09-15T21:32:10.364Z,80.00
2022-09-15T21:34:37.287Z,80.20
2022-09-15T21:37:04.124Z,80.30
2022-09-15T21:39:31.224Z,80.70
2022-09-15T21:41:58.085Z,80.80
2022-09-15T21:44:25.096Z,80.60
2022-09-15T21:46:52.727Z,80.60
2022-09-15T21:49:20.162Z,80.30
2022-09-15T21:51:47.495Z,80.40
2022-09-15T21:54:14.425Z,80.60
2022-09-15T21:56:41.435Z,80.70
2022-09-15T21:59:32.326Z,80.90
2022-09-15T22:01:59.244Z,80.90
2022-09-15T22:04:26.209Z,81.20
2022-09-15T22:06:53.287Z,81.40
2022-09-15T22:09:21.396Z,81.80
2022-09-15T22:11:49.076Z,81.90
2022-09-15T22:14:16.021Z,82.20
2022-09-15T22:16:43.425Z,82.60
2022-09-15T22:19:12.838Z,83.60
2022-09-15T22:21:42.241Z,83.40
2022-09-15T22:24:12.658Z,84.00
2022-09-15T22:26:41.470Z,84.10
2022-09-15T22:29:11.243Z,84.50
2022-09-15T22:31:38.480Z,84.60
2022-09-15T22:34:05.927Z,84.90
2022-09-15T22:36:33.242Z,85.20
2022-09-15T22:39:05.838Z,85.40
2022-09-15T22:41:35.813Z,85.50
2022-09-15T22:44:03.613Z,85.80
2022-09-15T22:46:30.629Z,86.00
2022-09-15T22:49:18.464Z,86.30
2022-09-15T22:51:45.844Z,86.70
2022-09-15T22:54:12.697Z,87.00
2022-09-15T22:56:39.585Z,87.40
2022-09-15T22:59:06.758Z,87.70
2022-09-15T23:01:33.766Z,88.00
2022-09-15T23:04:02.336Z,88.30
2022-09-15T23:06:32.233Z,88.60
2022-09-15T23:09:07.483Z,88.80
2022-09-15T23:11:35.828Z,89.00
2022-09-15T23:14:03.178Z,89.20
2022-09-15T23:16:30.791Z,89.50
2022-09-15T23:18:58.408Z,89.80
2022-09-15T23:21:25.768Z,90.00
2022-09-15T23:23:54.271Z,90.10
2022-09-15T23:26:23.826Z,90.30
2022-09-15T23:29:10.166Z,90.30
2022-09-15T23:31:37.208Z,90.50
2022-09-15T23:34:04.141Z,90.50
2022-09-15T23:36:31.198Z,90.60
2022-09-15T23:39:01.750Z,90.60
2022-09-15T23:41:28.580Z,90.60
2022-09-15T23:43:57.027Z,90.70
2022-09-15T23:46:23.915Z,90.80
2022-09-15T23:49:09.634Z,90.80
2022-09-15T23:51:36.456Z,90.90
2022-09-15T23:54:04.722Z,90.90
2022-09-15T23:56:32.406Z,91.00
2022-09-15T23:59:01.495Z,91.10
